createdAt,value
2023-02-12T00:01:45.672Z,18.92
2023-02-12T00:04:19.655Z,16.33
2023-02-12T00:06:50.042Z,18.55
2023-02-12T00:09:20.096Z,19.85
2023-02-12T00:11:50.224Z,19.80
2023-02-12T00:14:18.580Z,18.00
2023-02-12T00:16:47.126Z,18.02
2023-02-12T00:19:17.853Z,20.13
2023-02-12T00:21:46.132Z,18.15
2023-02-12T00:24:14.576Z,16.38
2023-02-12T00:26:44.531Z,18.23
2023-02-12T00:29:14.172Z,16.52
2023-02-12T00:31:42.762Z,18.85
2023-02-12T00:34:13.487Z,18.50
2023-02-12T00:36:42.540Z,18.45
2023-02-12T00:39:11.871Z,19.45
2023-02-12T00:41:40.340Z,20.50
2023-02-12T00:44:10.019Z,15.88
2023-02-12T00:46:39.980Z,16.83
2023-02-12T00:49:09.346Z,19.17
2023-02-12T00:51:38.202Z,19.40
2023-02-12T00:54:06.783Z,17.27
2023-02-12T00:56:36.652Z,18.77
2023-02-12T00:59:05.604Z,18.45
2023-02-12T01:01:35.824Z,17.23
2023-02-12T01:04:05.516Z,18.60
2023-02-12T01:06:35.596Z,19.80
2023-02-12T01:09:04.415Z,15.43
2023-02-12T01:11:32.997Z,18.05
2023-02-12T01:14:01.859Z,17.73
2023-02-12T01:16:34.036Z,21.13
2023-02-12T01:19:05.853Z,21.00
2023-02-12T01:21:37.687Z,19.55
2023-02-12T01:24:07.651Z,21.40
2023-02-12T01:26:36.165Z,20.60
2023-02-12T01:29:07.281Z,20.58
2023-02-12T01:31:38.826Z,21.83
2023-02-12T01:34:12.510Z,21.40
2023-02-12T01:36:41.012Z,22.55
2023-02-12T01:39:10.472Z,24.83
2023-02-12T01:41:45.926Z,29.38
2023-02-12T01:44:21.868Z,25.13
2023-02-12T01:46:51.915Z,30.90
2023-02-12T01:49:24.325Z,29.13
2023-02-12T01:51:57.739Z,24.85
2023-02-12T01:54:27.353Z,27.10
2023-02-12T01:56:59.317Z,26.25
2023-02-12T01:59:28.517Z,24.83
2023-02-12T02:02:00.201Z,25.48
2023-02-12T02:04:33.616Z,25.48
2023-02-12T02:07:04.586Z,22.60
2023-02-12T02:09:36.347Z,22.38
2023-02-12T02:12:23.182Z,23.58
2023-02-12T02:14:54.084Z,23.17
2023-02-12T02:17:44.560Z,22.05
2023-02-12T02:20:39.923Z,22.85
2023-02-12T02:23:33.646Z,21.00
2023-02-12T02:26:43.663Z,22.00
2023-02-12T02:29:56.218Z,21.73
2023-02-12T02:35:06.448Z,20.05
2023-02-12T02:37:40.473Z,21.35
2023-02-12T02:40:12.978Z,22.17
2023-02-12T02:42:45.912Z,23.35
2023-02-12T02:45:17.893Z,22.08
2023-02-12T02:50:22.733Z,24.70
2023-02-12T02:52:56.528Z,23.27
2023-02-12T02:55:29.671Z,23.50
2023-02-12T02:58:02.019Z,23.50
2023-02-12T03:00:37.280Z,23.10
2023-02-12T03:03:13.097Z,23.00
2023-02-12T03:05:48.622Z,21.73
2023-02-12T03:08:24.264Z,20.95
2023-02-12T03:10:57.800Z,22.80
2023-02-12T03:13:31.342Z,23.05
2023-02-12T03:16:07.004Z,23.77
2023-02-12T03:18:44.386Z,23.95
2023-02-12T03:21:18.696Z,24.08
2023-02-12T03:23:52.974Z,26.23
2023-02-12T03:26:28.689Z,25.05
2023-02-12T03:28:57.921Z,25.38
2023-02-12T03:31:35.045Z,25.23
2023-02-12T03:34:24.957Z,24.40
2023-02-12T03:36:58.436Z,24.50
2023-02-12T03:39:34.648Z,23.98
2023-02-12T03:42:08.016Z,24.33
2023-02-12T03:44:48.122Z,25.92
2023-02-12T03:47:24.592Z,26.35
2023-02-12T03:50:01.509Z,26.67
2023-02-12T03:52:31.841Z,28.30
2023-02-12T03:55:00.627Z,28.80
2023-02-12T03:57:34.476Z,29.27
2023-02-12T04:00:08.889Z,28.48
2023-02-12T04:02:44.456Z,31.00
2023-02-12T04:05:20.971Z,31.15
2023-02-12T04:07:50.337Z,30.33
2023-02-12T04:10:21.981Z,30.23
2023-02-12T04:12:55.482Z,28.25
2023-02-12T04:15:47.978Z,29.58
2023-02-12T04:18:22.723Z,28.63
2023-02-12T04:21:02.050Z,29.20
2023-02-12T04:23:49.136Z,29.50
2023-02-12T04:26:24.955Z,29.40
2023-02-12T04:29:13.611Z,28.45
2023-02-12T04:31:50.328Z,35.63
2023-02-12T04:34:26.571Z,36.13
2023-02-12T04:37:09.992Z,33.53
2023-02-12T04:39:40.758Z,32.17
2023-02-12T04:42:09.660Z,29.63
2023-02-12T04:44:40.370Z,27.85
2023-02-12T04:47:09.579Z,29.25
2023-02-12T04:49:38.065Z,29.63
2023-02-12T04:52:08.293Z,29.25
2023-02-12T04:54:37.238Z,30.30
2023-02-12T04:57:05.750Z,29.58
2023-02-12T04:59:34.091Z,29.33
2023-02-12T05:02:03.160Z,29.13
2023-02-12T05:04:31.448Z,29.23
2023-02-12T05:06:59.838Z,28.65
2023-02-12T05:09:29.770Z,26.90
2023-02-12T05:11:58.532Z,27.48
2023-02-12T05:14:27.232Z,27.10
2023-02-12T05:16:56.223Z,27.70
2023-02-12T05:19:25.530Z,26.30
2023-02-12T05:21:54.494Z,28.63
2023-02-12T05:24:23.140Z,29.02
2023-02-12T05:26:54.128Z,30.48
2023-02-12T05:29:23.693Z,32.43
2023-02-12T05:31:52.838Z,32.90
2023-02-12T05:34:22.703Z,33.47
2023-02-12T05:36:57.596Z,34.67
2023-02-12T05:41:59.051Z,32.80
2023-02-12T05:44:27.778Z,34.20
2023-02-12T05:46:55.975Z,37.70
2023-02-12T05:49:25.767Z,37.85
2023-02-12T05:51:54.692Z,38.47
2023-02-12T05:54:23.234Z,41.40
2023-02-12T05:56:52.198Z,40.17
2023-02-12T05:59:25.897Z,39.53
2023-02-12T06:01:54.722Z,38.83
2023-02-12T06:04:30.647Z,36.92
2023-02-12T06:06:58.957Z,34.58
2023-02-12T06:09:29.578Z,34.30
2023-02-12T06:11:59.025Z,35.15
2023-02-12T06:14:31.744Z,34.45
2023-02-12T06:17:00.705Z,36.70
2023-02-12T06:19:29.030Z,45.58
2023-02-12T06:22:00.789Z,43.65
2023-02-12T06:24:38.640Z,40.22
2023-02-12T06:27:07.035Z,43.88
2023-02-12T06:29:39.611Z,40.53
2023-02-12T06:32:08.548Z,38.03
2023-02-12T06:34:37.108Z,35.63
2023-02-12T06:37:06.983Z,34.10
2023-02-12T06:39:35.893Z,33.85
2023-02-12T06:42:05.360Z,32.92
2023-02-12T06:44:38.884Z,32.85
2023-02-12T06:47:07.308Z,32.58
2023-02-12T06:49:36.065Z,35.47
2023-02-12T06:52:06.543Z,36.63
2023-02-12T06:54:35.138Z,38.85
2023-02-12T06:57:05.264Z,38.05
2023-02-12T06:59:34.903Z,38.95
2023-02-12T07:02:05.957Z,39.78
2023-02-12T07:04:34.248Z,38.55
2023-02-12T07:07:03.272Z,38.72
2023-02-12T07:09:32.009Z,40.72
2023-02-12T07:12:01.065Z,41.42
2023-02-12T07:14:29.692Z,42.25
2023-02-12T07:17:09.137Z,42.83
2023-02-12T07:19:38.940Z,43.72
2023-02-12T07:22:10.384Z,43.72
2023-02-12T07:24:39.319Z,43.58
2023-02-12T07:27:09.740Z,45.28
2023-02-12T07:29:39.134Z,46.60
2023-02-12T07:32:07.767Z,48.42
2023-02-12T07:34:36.740Z,49.60
2023-02-12T07:37:09.933Z,49.75
2023-02-12T07:39:39.023Z,47.40
2023-02-12T07:42:08.593Z,44.10
2023-02-12T07:44:37.021Z,41.10
2023-02-12T07:47:06.317Z,46.67
2023-02-12T07:49:35.295Z,41.55
2023-02-12T07:52:03.558Z,36.00
2023-02-12T07:54:38.072Z,35.92
2023-02-12T07:57:07.849Z,35.08
2023-02-12T07:59:36.481Z,36.45
2023-02-12T08:02:05.835Z,37.33
2023-02-12T08:04:34.507Z,35.33
2023-02-12T08:07:03.879Z,33.38
2023-02-12T08:09:35.767Z,32.15
2023-02-12T08:12:04.241Z,31.98
2023-02-12T08:14:32.734Z,31.27
2023-02-12T08:17:02.610Z,30.77
2023-02-12T08:19:32.073Z,28.08
2023-02-12T08:22:03.699Z,30.13
2023-02-12T08:24:32.076Z,27.50
2023-02-12T08:27:01.622Z,27.08
2023-02-12T08:29:33.951Z,24.88
2023-02-12T08:32:06.367Z,23.25
2023-02-12T08:34:37.450Z,22.17
2023-02-12T08:37:06.694Z,22.53
2023-02-12T08:39:36.112Z,22.73
2023-02-12T08:42:06.176Z,21.90
2023-02-12T08:44:35.465Z,23.33
2023-02-12T08:47:06.240Z,25.60
2023-02-12T08:49:35.245Z,25.52
2023-02-12T08:52:03.671Z,23.58
2023-02-12T08:54:34.305Z,20.50
2023-02-12T08:57:04.542Z,14.50
2023-02-12T08:59:34.528Z,14.07
2023-02-12T09:02:04.333Z,13.63
2023-02-12T09:04:33.074Z,12.80
2023-02-12T09:07:02.528Z,11.27
2023-02-12T09:09:35.794Z,11.60
2023-02-12T09:12:04.790Z,11.05
2023-02-12T09:14:34.414Z,11.30
2023-02-12T09:17:05.593Z,11.57
2023-02-12T09:19:34.141Z,11.75
2023-02-12T09:22:03.078Z,11.90
2023-02-12T09:24:37.557Z,12.02
2023-02-12T09:27:07.684Z,12.88
2023-02-12T09:29:39.025Z,12.25
2023-02-12T09:32:09.300Z,11.95
2023-02-12T09:34:39.002Z,12.07
2023-02-12T09:37:07.225Z,12.93
2023-02-12T09:39:36.293Z,12.00
2023-02-12T09:42:44.900Z,11.73
2023-02-12T09:45:22.638Z,11.98
2023-02-12T09:48:01.049Z,12.25
2023-02-12T09:50:37.041Z,12.68
2023-02-12T09:53:07.630Z,12.55
2023-02-12T09:55:37.257Z,11.43
2023-02-12T09:58:14.095Z,10.43
2023-02-12T10:00:44.825Z,9.80
2023-02-12T10:03:17.551Z,9.90
2023-02-12T10:05:52.311Z,9.15
2023-02-12T10:08:47.261Z,9.30
2023-02-12T10:11:35.339Z,8.90
2023-02-12T10:14:14.868Z,8.63
2023-02-12T10:16:54.596Z,8.02
2023-02-12T10:19:50.940Z,8.82
2023-02-12T10:22:32.349Z,8.48
2023-02-12T10:25:11.893Z,8.18
2023-02-12T10:27:42.362Z,7.80
2023-02-12T10:30:20.375Z,6.57
2023-02-12T10:32:54.509Z,7.00
2023-02-12T10:35:27.722Z,7.47
2023-02-12T10:38:02.069Z,7.43
2023-02-12T10:40:34.321Z,6.05
2023-02-12T10:43:03.863Z,7.00
2023-02-12T10:45:34.303Z,6.78
2023-02-12T10:48:12.718Z,6.77
2023-02-12T10:51:02.945Z,7.13
2023-02-12T10:53:34.622Z,6.80
2023-02-12T10:56:12.557Z,7.00
2023-02-12T10:58:54.273Z,7.72
2023-02-12T11:01:27.709Z,8.10
2023-02-12T11:03:59.806Z,7.70
2023-02-12T11:08:58.876Z,7.20
2023-02-12T11:11:32.793Z,7.70
2023-02-12T11:14:04.601Z,7.72
2023-02-12T11:16:35.699Z,8.20
2023-02-12T11:19:09.071Z,7.90
2023-02-12T11:21:38.295Z,8.07
2023-02-12T11:24:29.407Z,8.15
2023-02-12T11:27:14.796Z,9.43
2023-02-12T11:29:45.138Z,9.20
2023-02-12T11:32:18.733Z,8.40
2023-02-12T11:35:06.760Z,8.43
2023-02-12T11:37:38.267Z,8.40
2023-02-12T11:40:15.262Z,7.93
2023-02-12T11:42:53.670Z,7.90
2023-02-12T11:45:28.896Z,7.82
2023-02-12T11:47:59.204Z,8.07
2023-02-12T11:50:32.394Z,8.10
2023-02-12T11:53:07.407Z,8.32
2023-02-12T11:55:40.001Z,8.10
2023-02-12T11:58:17.824Z,7.72
2023-02-12T12:00:52.170Z,8.20
2023-02-12T12:03:26.514Z,7.65
2023-02-12T12:06:03.466Z,7.18
2023-02-12T12:08:40.296Z,7.85
2023-02-12T12:11:14.765Z,7.10
2023-02-12T12:13:48.917Z,7.88
2023-02-12T12:16:44.256Z,24.42
2023-02-12T12:19:40.902Z,27.75
2023-02-12T12:22:22.176Z,29.73
2023-02-12T12:24:59.360Z,30.55
2023-02-12T12:27:56.065Z,31.45
2023-02-12T12:30:30.357Z,32.67
2023-02-12T12:33:03.707Z,32.78
2023-02-12T12:35:41.260Z,32.97
2023-02-12T12:38:24.969Z,34.05
2023-02-12T12:41:03.960Z,33.63
2023-02-12T12:43:44.720Z,33.92
2023-02-12T12:46:28.866Z,35.35
2023-02-12T12:49:22.619Z,34.30
2023-02-12T12:52:11.228Z,34.60
2023-02-12T12:54:55.035Z,33.22
2023-02-12T12:57:48.303Z,33.63
2023-02-12T13:00:28.752Z,32.78
2023-02-12T13:03:13.170Z,33.83
2023-02-12T13:05:59.648Z,33.08
2023-02-12T13:08:44.501Z,31.17
2023-02-12T13:11:29.905Z,31.77
2023-02-12T13:14:14.946Z,32.85
2023-02-12T13:16:49.684Z,32.38
2023-02-12T13:19:29.185Z,32.25
2023-02-12T13:22:04.062Z,32.70
2023-02-12T13:24:40.378Z,32.38
2023-02-12T13:27:17.548Z,32.50
2023-02-12T13:29:52.045Z,31.77
2023-02-12T13:32:26.709Z,29.95
2023-02-12T13:34:57.381Z,29.02
2023-02-12T13:37:36.551Z,28.67
2023-02-12T13:40:07.681Z,27.77
2023-02-12T13:42:53.907Z,27.88
2023-02-12T13:45:42.348Z,27.05
2023-02-12T13:48:29.809Z,26.23
2023-02-12T13:51:09.454Z,24.67
2023-02-12T13:53:52.001Z,21.35
2023-02-12T13:56:36.372Z,20.55
2023-02-12T13:59:42.010Z,21.60
2023-02-12T14:02:47.818Z,20.92
2023-02-12T14:05:32.368Z,20.42
2023-02-12T14:08:05.760Z,21.85
2023-02-12T14:10:37.496Z,21.83
2023-02-12T14:13:18.691Z,22.88
2023-02-12T14:15:51.757Z,23.17
2023-02-12T14:18:30.787Z,20.85
2023-02-12T14:21:39.265Z,20.00
2023-02-12T14:24:50.684Z,18.70
2023-02-12T14:27:48.637Z,19.00
2023-02-12T14:30:32.215Z,18.83
2023-02-12T14:33:25.599Z,18.50
2023-02-12T14:36:40.265Z,18.27
2023-02-12T14:39:31.828Z,19.77
2023-02-12T14:42:34.786Z,18.60
2023-02-12T14:45:03.709Z,17.73
2023-02-12T14:47:55.864Z,19.27
2023-02-12T14:50:32.189Z,19.67
2023-02-12T14:53:08.411Z,18.65
2023-02-12T14:55:37.519Z,18.48
2023-02-12T14:58:17.267Z,18.48
2023-02-12T15:00:50.341Z,18.05
2023-02-12T15:03:29.282Z,19.75
2023-02-12T15:06:05.872Z,18.98
2023-02-12T15:08:42.642Z,19.67
2023-02-12T15:11:22.799Z,19.55
2023-02-12T15:13:56.891Z,19.52
2023-02-12T15:16:40.524Z,19.80
2023-02-12T15:19:23.535Z,19.70
2023-02-12T15:24:29.310Z,18.02
2023-02-12T15:27:02.532Z,18.75
2023-02-12T15:29:42.359Z,18.60
2023-02-12T15:32:23.651Z,19.38
2023-02-12T15:34:53.482Z,19.67
2023-02-12T15:37:27.593Z,21.27
2023-02-12T15:39:59.199Z,22.48
2023-02-12T15:42:32.340Z,23.17
2023-02-12T15:45:17.507Z,22.83
2023-02-12T15:47:56.635Z,24.83
2023-02-12T15:50:26.824Z,23.05
2023-02-12T15:52:57.357Z,21.50
2023-02-12T15:55:31.929Z,20.95
2023-02-12T15:58:02.649Z,21.95
2023-02-12T16:00:37.010Z,21.58
2023-02-12T16:03:07.452Z,22.73
2023-02-12T16:05:40.449Z,22.75
2023-02-12T16:08:16.322Z,23.40
2023-02-12T16:10:50.757Z,24.08
2023-02-12T16:13:27.236Z,24.23
2023-02-12T16:16:06.865Z,23.95
2023-02-12T16:18:36.469Z,24.42
2023-02-12T16:21:07.817Z,25.52
2023-02-12T16:23:38.476Z,26.55
2023-02-12T16:26:07.140Z,28.25
2023-02-12T16:28:36.202Z,28.10
2023-02-12T16:31:13.011Z,27.17
2023-02-12T16:33:49.623Z,29.48
2023-02-12T16:36:30.830Z,30.25
2023-02-12T16:39:05.982Z,30.45
2023-02-12T16:41:38.418Z,46.92
2023-02-12T16:44:29.371Z,46.38
2023-02-12T16:47:03.123Z,47.65
2023-02-12T16:49:32.230Z,40.17
2023-02-12T16:52:24.192Z,36.97
2023-02-12T16:54:59.023Z,35.22
2023-02-12T16:57:27.734Z,40.70
2023-02-12T16:59:57.124Z,44.90
2023-02-12T17:02:25.902Z,51.58
2023-02-12T17:04:56.713Z,73.78
2023-02-12T17:10:00.112Z,36.63
2023-02-12T17:12:30.128Z,36.05
2023-02-12T17:14:58.701Z,36.72
2023-02-12T17:17:27.832Z,37.53
2023-02-12T17:19:56.716Z,38.25
2023-02-12T17:22:51.441Z,40.20
2023-02-12T17:25:21.650Z,40.33
2023-02-12T17:27:50.530Z,40.10
2023-02-12T17:30:22.225Z,40.45
2023-02-12T17:32:51.521Z,55.42
2023-02-12T17:35:20.187Z,63.75
2023-02-12T17:37:49.147Z,55.45
2023-02-12T17:40:17.901Z,47.65
2023-02-12T17:42:49.224Z,48.65
2023-02-12T17:45:19.296Z,48.03
2023-02-12T17:47:48.194Z,48.70
2023-02-12T17:50:20.150Z,53.35
2023-02-12T17:55:22.775Z,55.30
2023-02-12T17:57:57.288Z,61.97
2023-02-12T18:00:27.074Z,66.18
2023-02-12T18:02:55.846Z,66.43
2023-02-12T18:05:24.678Z,70.05
2023-02-12T18:07:54.472Z,71.20
2023-02-12T18:10:25.245Z,70.72
2023-02-12T18:12:58.617Z,69.00
2023-02-12T18:15:28.306Z,67.85
2023-02-12T18:17:57.050Z,68.20
2023-02-12T18:20:25.862Z,69.03
2023-02-12T18:22:55.910Z,66.10
2023-02-12T18:25:24.819Z,66.25
2023-02-12T18:27:57.534Z,67.32
2023-02-12T18:30:28.040Z,66.90
2023-02-12T18:32:57.037Z,77.65
2023-02-12T18:35:26.410Z,139.38
2023-02-12T18:37:55.877Z,191.20
2023-02-12T18:40:27.629Z,92.45
2023-02-12T18:42:57.827Z,76.97
2023-02-12T18:45:27.282Z,74.88
2023-02-12T18:47:57.052Z,72.70
2023-02-12T18:50:26.136Z,70.80
2023-02-12T18:52:58.253Z,69.85
2023-02-12T18:55:26.919Z,67.72
2023-02-12T18:57:56.920Z,66.68
2023-02-12T19:00:25.693Z,68.95
2023-02-12T19:02:54.708Z,69.53
2023-02-12T19:05:23.652Z,60.92
2023-02-12T19:07:52.461Z,57.33
2023-02-12T19:10:22.313Z,57.95
2023-02-12T19:12:51.660Z,60.35
2023-02-12T19:15:23.094Z,62.85
2023-02-12T19:17:51.828Z,64.43
2023-02-12T19:20:20.817Z,65.05
2023-02-12T19:22:50.326Z,67.35
2023-02-12T19:25:19.040Z,66.88
2023-02-12T19:27:47.619Z,66.95
2023-02-12T19:30:17.125Z,73.50
2023-02-12T19:32:47.616Z,66.90
2023-02-12T19:35:16.244Z,67.47
2023-02-12T19:37:47.770Z,68.90
2023-02-12T19:40:16.302Z,69.47
2023-02-12T19:42:45.929Z,69.80
2023-02-12T19:45:16.381Z,68.30
2023-02-12T19:47:50.858Z,69.00
2023-02-12T19:50:21.287Z,70.43
2023-02-12T19:52:51.168Z,70.60
2023-02-12T19:55:28.458Z,68.97
2023-02-12T19:57:57.288Z,67.35
2023-02-12T20:00:26.037Z,65.72
2023-02-12T20:02:56.958Z,64.80
2023-02-12T20:05:25.694Z,64.97
2023-02-12T20:07:54.639Z,61.67
2023-02-12T20:10:23.496Z,59.05
2023-02-12T20:12:52.749Z,57.53
2023-02-12T20:15:22.754Z,56.78
2023-02-12T20:17:51.919Z,52.65
2023-02-12T20:20:23.237Z,51.67
2023-02-12T20:22:51.890Z,52.78
2023-02-12T20:25:25.553Z,51.17
2023-02-12T20:27:54.482Z,51.03
2023-02-12T20:30:23.653Z,58.95
2023-02-12T20:32:52.685Z,52.22
2023-02-12T20:35:22.570Z,56.47
2023-02-12T20:37:51.000Z,57.60
2023-02-12T20:40:20.892Z,47.30
2023-02-12T20:42:49.486Z,46.92
2023-02-12T20:45:18.454Z,47.42
2023-02-12T20:47:47.314Z,47.80
2023-02-12T20:50:17.092Z,42.53
2023-02-12T20:52:48.867Z,40.50
2023-02-12T20:55:19.100Z,39.60
2023-02-12T20:57:49.638Z,40.15
2023-02-12T21:00:22.629Z,38.88
2023-02-12T21:02:52.887Z,38.53
2023-02-12T21:05:21.567Z,38.10
2023-02-12T21:07:55.318Z,37.42
2023-02-12T21:10:23.871Z,36.60
2023-02-12T21:12:53.637Z,37.15
2023-02-12T21:15:23.549Z,37.60
2023-02-12T21:17:52.617Z,37.78
2023-02-12T21:20:21.731Z,36.42
2023-02-12T21:22:50.483Z,36.85
2023-02-12T21:25:20.509Z,37.17
2023-02-12T21:27:49.445Z,35.35
2023-02-12T21:30:18.921Z,37.15
2023-02-12T21:32:48.942Z,35.58
2023-02-12T21:35:17.615Z,34.72
2023-02-12T21:37:46.250Z,34.70
2023-02-12T21:40:14.765Z,32.97
2023-02-12T21:42:47.280Z,33.25
2023-02-12T21:45:16.071Z,31.75
2023-02-12T21:47:44.373Z,30.98
2023-02-12T21:50:18.324Z,29.50
2023-02-12T21:52:46.827Z,28.25
2023-02-12T21:55:15.396Z,27.27
2023-02-12T21:57:48.520Z,26.80
2023-02-12T22:00:17.706Z,27.08
2023-02-12T22:02:46.181Z,25.52
2023-02-12T22:05:15.116Z,26.58
2023-02-12T22:07:44.967Z,25.52
2023-02-12T22:10:13.383Z,26.95
2023-02-12T22:12:42.061Z,26.58
2023-02-12T22:15:12.223Z,27.52
2023-02-12T22:17:40.795Z,27.02
2023-02-12T22:20:10.370Z,27.55
2023-02-12T22:22:38.595Z,27.00
2023-02-12T22:25:07.545Z,25.35
2023-02-12T22:27:36.010Z,24.40
2023-02-12T22:30:04.575Z,23.52
2023-02-12T22:32:39.161Z,23.90
2023-02-12T22:35:11.670Z,23.23
2023-02-12T22:37:42.234Z,22.60
2023-02-12T22:40:11.704Z,22.50
2023-02-12T22:42:40.709Z,22.52
2023-02-12T22:45:10.440Z,21.88
2023-02-12T22:47:40.387Z,21.40
2023-02-12T22:50:09.443Z,20.85
2023-02-12T22:52:38.214Z,21.25
2023-02-12T22:55:07.097Z,19.20
2023-02-12T22:57:35.412Z,19.63
2023-02-12T23:00:05.495Z,17.77
2023-02-12T23:02:34.605Z,17.88
2023-02-12T23:05:04.429Z,18.25
2023-02-12T23:07:35.782Z,17.00
2023-02-12T23:10:04.526Z,16.92
2023-02-12T23:12:33.256Z,16.88
2023-02-12T23:15:01.910Z,17.00
2023-02-12T23:17:31.188Z,16.40
2023-02-12T23:19:59.886Z,16.15
2023-02-12T23:22:32.741Z,15.20
2023-02-12T23:25:01.136Z,15.82
2023-02-12T23:27:32.658Z,16.17
2023-02-12T23:30:02.572Z,17.23
2023-02-12T23:32:31.636Z,17.73
2023-02-12T23:35:00.005Z,18.08
2023-02-12T23:37:28.530Z,19.25
2023-02-12T23:39:59.315Z,17.90
2023-02-12T23:42:27.837Z,20.15
2023-02-12T23:44:57.806Z,19.45
2023-02-12T23:47:27.124Z,19.42
2023-02-12T23:49:55.730Z,19.77
2023-02-12T23:52:24.211Z,20.90
2023-02-12T23:54:56.401Z,21.20
2023-02-12T23:57:26.304Z,21.38
2023-02-12T23:59:56.090Z,21.10
